Time;durP1;ratioP1;P1;durP2;ratioP2;P2;SDS_P1;SDS_P2;PMS_P1;PMS_P2;Temp;Humidity;BMP_temperature;BMP_pressure;BME280_temperature;BME280_humidity;BME280_pressure;Samples;Min_cycle;Max_cycle;Signal;HPM_P1;HPM_P2
2023/07/30 00:00:27;;;;;;;6.30;5.23;;;20.00;99.90;;;;;;5017222;28;20478;-63
2023/07/30 00:02:53;;;;;;;10.93;8.20;;;20.10;99.90;;;;;;4988623;28;20677;-62
2023/07/30 00:05:20;;;;;;;14.43;6.13;;;20.20;99.90;;;;;;4999727;28;20490;-62
2023/07/30 00:07:47;;;;;;;19.67;7.30;;;20.20;99.90;;;;;;4988456;28;20473;-62
2023/07/30 00:10:14;;;;;;;7.67;5.50;;;20.20;99.90;;;;;;5003742;28;20856;-63
2023/07/30 00:12:41;;;;;;;11.03;7.57;;;;;;;;;;5003574;28;20477;-62
2023/07/30 00:15:09;;;;;;;10.30;6.33;;;20.30;99.90;;;;;;5010739;28;20502;-63
2023/07/30 00:17:37;;;;;;;7.07;6.00;;;20.30;99.90;;;;;;4997993;28;20837;-63
2023/07/30 00:20:05;;;;;;;8.50;5.13;;;20.20;99.90;;;;;;4997236;28;20492;-62
2023/07/30 00:22:32;;;;;;;9.83;5.87;;;20.30;99.90;;;;;;4990706;28;20486;-63
2023/07/30 00:24:59;;;;;;;19.93;8.13;;;20.30;99.90;;;;;;5018990;28;20488;-64
2023/07/30 00:27:26;;;;;;;14.90;7.03;;;20.40;99.90;;;;;;4982675;28;21143;-64
2023/07/30 00:29:53;;;;;;;20.50;10.63;;;20.40;99.90;;;;;;4988035;28;20631;-63
2023/07/30 00:32:19;;;;;;;12.20;8.53;;;20.50;99.90;;;;;;5009506;28;20489;-64
2023/07/30 00:34:48;;;;;;;19.03;12.30;;;;;;;;;;5005512;28;20476;-64
2023/07/30 00:37:15;;;;;;;11.10;9.47;;;20.50;99.90;;;;;;5012488;28;20482;-64
2023/07/30 00:39:42;;;;;;;13.40;11.67;;;;;;;;;;5014512;28;20999;-64
2023/07/30 00:42:09;;;;;;;19.60;10.83;;;20.60;99.90;;;;;;5004047;28;20482;-65
2023/07/30 00:44:36;;;;;;;20.37;12.93;;;20.50;99.90;;;;;;5001458;28;20527;-65
2023/07/30 00:47:04;;;;;;;13.67;12.27;;;20.50;99.90;;;;;;4999653;28;20485;-64
2023/07/30 00:49:31;;;;;;;16.60;11.47;;;20.50;99.90;;;;;;5016782;28;20963;-65
2023/07/30 00:51:59;;;;;;;26.00;12.50;;;20.50;99.90;;;;;;4992929;28;20476;-65
2023/07/30 00:54:26;;;;;;;15.00;11.90;;;20.40;99.90;;;;;;4995359;28;20578;-66
2023/07/30 00:56:54;;;;;;;63.60;21.40;;;20.30;99.90;;;;;;5007621;28;20487;-63
2023/07/30 00:59:21;;;;;;;14.47;11.70;;;20.30;99.90;;;;;;5019540;28;20482;-66
2023/07/30 01:01:48;;;;;;;29.83;15.70;;;20.10;99.90;;;;;;4994681;28;20559;-62
2023/07/30 01:04:15;;;;;;;24.20;13.00;;;20.20;99.90;;;;;;5004446;28;20839;-65
2023/07/30 01:06:43;;;;;;;27.27;13.73;;;;;;;;;;4998380;28;20488;-63
2023/07/30 01:09:12;;;;;;;16.53;10.47;;;20.10;99.90;;;;;;4990289;28;20494;-64
2023/07/30 01:11:40;;;;;;;17.47;12.10;;;20.10;99.90;;;;;;5019565;28;20494;-64
2023/07/30 01:14:09;;;;;;;14.00;9.00;;;20.10;99.90;;;;;;5003352;28;20494;-64
2023/07/30 01:16:37;;;;;;;14.80;10.10;;;20.20;99.90;;;;;;4999931;28;20491;-65
2023/07/30 01:19:04;;;;;;;17.57;10.10;;;20.10;99.90;;;;;;5016675;28;20862;-61
2023/07/30 01:21:33;;;;;;;15.20;10.10;;;20.20;99.90;;;;;;4993912;28;20493;-65
2023/07/30 01:24:00;;;;;;;28.70;10.33;;;20.30;99.90;;;;;;5000453;28;20490;-63
2023/07/30 01:26:32;;;;;;;10.70;8.00;;;20.30;99.90;;;;;;5006851;28;20820;-64
2023/07/30 01:29:02;;;;;;;14.57;9.20;;;20.30;99.90;;;;;;4986862;28;20490;-63
2023/07/30 01:31:33;;;;;;;16.70;10.10;;;20.30;99.90;;;;;;5000068;28;20481;-63
2023/07/30 01:34:02;;;;;;;14.53;9.83;;;20.30;99.90;;;;;;5007867;28;20595;-64
2023/07/30 01:36:30;;;;;;;14.97;9.47;;;20.40;99.90;;;;;;5015988;28;20507;-63
2023/07/30 01:39:00;;;;;;;28.67;11.00;;;20.40;99.90;;;;;;5006915;28;20676;-63
2023/07/30 01:41:27;;;;;;;12.63;7.67;;;20.40;99.90;;;;;;5001108;28;20501;-63
2023/07/30 01:43:55;;;;;;;25.37;10.60;;;20.40;99.90;;;;;;5015317;28;20494;-64
2023/07/30 01:46:24;;;;;;;12.87;9.10;;;20.30;99.90;;;;;;5004755;28;21005;-64
2023/07/30 01:48:51;;;;;;;19.83;12.40;;;20.40;99.90;;;;;;4987494;28;20483;-64
2023/07/30 01:51:18;;;;;;;20.27;10.13;;;20.50;99.90;;;;;;5014909;28;20488;-65
2023/07/30 01:53:45;;;;;;;26.73;11.23;;;20.60;99.90;;;;;;5017726;28;20561;-65
2023/07/30 01:56:13;;;;;;;13.07;8.97;;;20.70;99.90;;;;;;5002652;28;20506;-64
2023/07/30 01:58:40;;;;;;;14.67;10.20;;;;;;;;;;5011407;28;20833;-64
2023/07/30 02:01:07;;;;;;;10.20;7.73;;;20.70;99.90;;;;;;5015803;28;21068;-65
2023/07/30 02:03:34;;;;;;;11.23;8.47;;;20.70;99.90;;;;;;5001053;28;20818;-66
2023/07/30 02:06:02;;;;;;;16.77;8.50;;;;;;;;;;4995253;28;20485;-65
2023/07/30 02:08:28;;;;;;;12.53;8.10;;;20.60;99.90;;;;;;5022801;28;20448;-66
2023/07/30 02:10:57;;;;;;;17.50;10.10;;;20.50;99.90;;;;;;4984547;28;21086;-66
2023/07/30 02:13:25;;;;;;;16.70;7.40;;;20.50;99.90;;;;;;5003202;28;20456;-66
2023/07/30 02:15:53;;;;;;;14.97;9.90;;;20.60;99.90;;;;;;5002391;28;20483;-67
2023/07/30 02:18:19;;;;;;;10.50;7.10;;;20.60;99.90;;;;;;5002545;28;20854;-67
2023/07/30 02:20:46;;;;;;;10.20;7.83;;;20.60;99.90;;;;;;5008341;28;20695;-67
2023/07/30 02:23:16;;;;;;;14.17;9.90;;;20.50;99.90;;;;;;5015026;28;20587;-64
2023/07/30 02:25:42;;;;;;;12.10;8.03;;;20.50;99.90;;;;;;5000586;28;20476;-66
2023/07/30 02:28:10;;;;;;;9.03;6.93;;;21.80;99.90;;;;;;4990766;28;20878;-66
2023/07/30 02:30:38;;;;;;;10.57;7.80;;;20.60;99.90;;;;;;5002337;28;20554;-66
2023/07/30 02:33:05;;;;;;;19.63;7.70;;;20.50;99.90;;;;;;4975229;28;20627;-64
2023/07/30 02:35:32;;;;;;;9.00;8.10;;;20.50;99.90;;;;;;5011302;28;20491;-64
2023/07/30 02:37:59;;;;;;;9.97;8.10;;;20.50;99.90;;;;;;5000379;28;20809;-65
2023/07/30 02:40:26;;;;;;;13.70;7.30;;;20.50;99.90;;;;;;5017660;28;20653;-66
2023/07/30 02:42:53;;;;;;;34.00;10.70;;;20.50;99.90;;;;;;4998290;28;20482;-65
2023/07/30 02:45:19;;;;;;;6.70;6.03;;;20.60;99.90;;;;;;4989148;28;20892;-65
2023/07/30 02:47:48;;;;;;;10.63;8.50;;;20.50;99.90;;;;;;5010103;28;20480;-66
2023/07/30 02:50:15;;;;;;;10.23;6.60;;;20.50;99.90;;;;;;5000155;28;20610;-66
2023/07/30 02:52:42;;;;;;;14.33;8.40;;;20.50;99.90;;;;;;5004934;28;20480;-66
2023/07/30 02:55:09;;;;;;;8.90;6.23;;;20.40;99.90;;;;;;5016871;28;20490;-67
2023/07/30 02:57:36;;;;;;;10.73;8.10;;;20.40;99.90;;;;;;5021637;28;20835;-66
2023/07/30 03:00:04;;;;;;;7.70;7.00;;;20.40;99.90;;;;;;5001258;28;20606;-66
2023/07/30 03:02:31;;;;;;;10.43;8.30;;;20.40;99.90;;;;;;4969727;28;20519;-66
2023/07/30 03:04:59;;;;;;;7.90;7.10;;;20.40;99.90;;;;;;4996902;28;20499;-68
2023/07/30 03:07:27;;;;;;;8.63;5.63;;;20.40;99.90;;;;;;5004474;28;20987;-67
2023/07/30 03:09:53;;;;;;;9.70;8.70;;;20.40;99.90;;;;;;4995264;28;20484;-69
2023/07/30 03:12:20;;;;;;;15.20;7.63;;;20.40;99.90;;;;;;5010192;28;20474;-67
2023/07/30 03:14:47;;;;;;;8.50;7.70;;;20.30;99.90;;;;;;5013625;28;20865;-68
2023/07/30 03:17:14;;;;;;;10.80;7.30;;;21.70;99.90;;;;;;4992940;28;20824;-66
2023/07/30 03:19:41;;;;;;;9.30;7.67;;;20.20;99.90;;;;;;5001191;28;20463;-65
2023/07/30 03:22:09;;;;;;;8.27;7.00;;;20.30;99.90;;;;;;4996720;28;20497;-65
2023/07/30 03:24:36;;;;;;;7.20;6.60;;;20.20;99.90;;;;;;4988802;28;20478;-65
2023/07/30 03:27:03;;;;;;;7.63;6.83;;;20.20;99.90;;;;;;4962332;28;20498;-66
2023/07/30 03:29:30;;;;;;;7.57;6.53;;;20.20;99.90;;;;;;4943568;28;20457;-65
2023/07/30 03:31:57;;;;;;;8.83;7.57;;;20.30;99.90;;;;;;4987436;28;20558;-66
2023/07/30 03:34:24;;;;;;;7.03;6.43;;;20.30;99.90;;;;;;4968236;28;20464;-66
2023/07/30 03:36:50;;;;;;;8.50;7.70;;;20.40;99.90;;;;;;4971245;28;20458;-66
2023/07/30 03:39:19;;;;;;;9.60;6.47;;;20.40;99.90;;;;;;4968915;28;20465;-66
2023/07/30 03:41:46;;;;;;;9.40;8.50;;;20.40;99.90;;;;;;4986691;28;20508;-66
2023/07/30 03:44:12;;;;;;;8.90;7.23;;;20.30;99.90;;;;;;4989125;28;20494;-65
2023/07/30 03:46:40;;;;;;;8.83;5.73;;;20.20;99.90;;;;;;4980810;28;20454;-65
2023/07/30 03:49:07;;;;;;;7.27;6.00;;;20.30;99.90;;;;;;5001384;28;20476;-65
2023/07/30 03:51:34;;;;;;;7.27;5.53;;;20.20;99.90;;;;;;4990078;28;21183;-65
2023/07/30 03:54:01;;;;;;;6.80;6.20;;;20.10;99.90;;;;;;5008384;28;20491;-64
2023/07/30 03:56:29;;;;;;;7.50;5.37;;;20.00;99.90;;;;;;5001927;28;20460;-65
2023/07/30 03:58:57;;;;;;;8.30;7.50;;;20.00;99.90;;;;;;5014400;28;20487;-65
2023/07/30 04:01:24;;;;;;;21.43;6.10;;;19.90;99.90;;;;;;5007325;28;20857;-65
2023/07/30 04:03:50;;;;;;;9.30;8.13;;;19.90;99.90;;;;;;5013807;28;20476;-65
2023/07/30 04:06:17;;;;;;;6.67;6.03;;;19.80;99.90;;;;;;5010683;28;20477;-64
2023/07/30 04:08:44;;;;;;;10.90;6.87;;;19.90;99.90;;;;;;5003526;28;20473;-65
2023/07/30 04:11:43;;;;;;;6.00;5.33;;;19.90;99.90;;;;;;5016072;28;21700;-65
2023/07/30 04:14:10;;;;;;;8.73;6.00;;;19.90;99.90;;;;;;5015904;28;20771;-66
2023/07/30 04:16:37;;;;;;;8.63;5.20;;;20.00;99.90;;;;;;4998257;28;20482;-65
2023/07/30 04:19:04;;;;;;;7.17;6.47;;;20.00;99.90;;;;;;5013561;28;20568;-65
2023/07/30 04:21:31;;;;;;;7.70;6.10;;;20.00;99.90;;;;;;5007889;28;20451;-65
2023/07/30 04:23:58;;;;;;;7.57;6.77;;;20.00;99.90;;;;;;5018156;28;20965;-65
2023/07/30 04:26:25;;;;;;;7.20;5.70;;;19.90;99.90;;;;;;4995793;28;21406;-64
2023/07/30 04:28:53;;;;;;;9.13;8.33;;;19.00;99.90;;;;;;5022754;28;20486;-65
2023/07/30 04:31:20;;;;;;;8.40;7.10;;;18.90;99.90;;;;;;5002898;28;20476;-66
2023/07/30 04:33:46;;;;;;;14.73;10.20;;;19.90;99.90;;;;;;5012078;28;20488;-65
2023/07/30 04:36:13;;;;;;;8.90;6.97;;;19.90;99.90;;;;;;5007939;28;20464;-64
2023/07/30 04:38:40;;;;;;;12.70;8.00;;;20.00;99.90;;;;;;5010162;28;20477;-66
2023/07/30 04:41:07;;;;;;;9.20;8.20;;;20.00;99.90;;;;;;5002071;28;20874;-65
2023/07/30 04:43:34;;;;;;;11.60;9.23;;;20.00;99.90;;;;;;5002625;28;20560;-66
2023/07/30 04:46:02;;;;;;;9.67;8.80;;;20.00;99.90;;;;;;4990501;28;20514;-66
2023/07/30 04:48:29;;;;;;;13.20;11.83;;;20.10;99.90;;;;;;5012247;28;20486;-65
2023/07/30 04:50:56;;;;;;;16.63;12.13;;;20.00;99.90;;;;;;5017627;28;20484;-66
2023/07/30 04:53:22;;;;;;;17.43;13.07;;;20.10;99.90;;;;;;5006794;28;20614;-66
2023/07/30 04:55:49;;;;;;;20.77;13.90;;;20.10;99.90;;;;;;5012408;28;20451;-65
2023/07/30 04:58:16;;;;;;;15.83;14.13;;;20.10;99.90;;;;;;5010431;28;20484;-65
2023/07/30 05:00:44;;;;;;;17.63;14.83;;;20.10;99.90;;;;;;5011546;28;20980;-66
2023/07/30 05:03:13;;;;;;;23.03;16.30;;;20.10;99.90;;;;;;4999852;28;20485;-66
2023/07/30 05:05:39;;;;;;;19.57;16.13;;;20.10;99.90;;;;;;5002371;28;20478;-64
2023/07/30 05:08:06;;;;;;;20.27;17.10;;;20.10;99.90;;;;;;5008898;28;20721;-65
2023/07/30 05:10:33;;;;;;;16.07;14.47;;;20.10;99.90;;;;;;4995484;28;20490;-66
2023/07/30 05:13:00;;;;;;;18.10;14.97;;;20.10;99.90;;;;;;5014709;28;20482;-66
2023/07/30 05:15:27;;;;;;;13.93;12.53;;;20.10;99.90;;;;;;4984227;28;20946;-65
2023/07/30 05:17:54;;;;;;;15.43;14.00;;;20.10;99.90;;;;;;5005404;28;20497;-69
2023/07/30 05:20:22;;;;;;;10.20;9.30;;;20.20;99.90;;;;;;4996449;28;20476;-67
2023/07/30 05:22:49;;;;;;;17.80;11.50;;;20.10;99.90;;;;;;5022009;28;20481;-67
2023/07/30 05:25:16;;;;;;;9.13;8.13;;;20.10;99.90;;;;;;5011717;28;20483;-65
2023/07/30 05:27:43;;;;;;;15.07;8.77;;;20.20;99.90;;;;;;5018641;28;20474;-67
2023/07/30 05:30:11;;;;;;;10.43;6.80;;;20.20;99.90;;;;;;5015527;28;20544;-66
2023/07/30 05:32:37;;;;;;;6.93;6.33;;;20.20;99.90;;;;;;5012980;28;20486;-67
2023/07/30 05:35:05;;;;;;;8.00;7.20;;;20.30;99.90;;;;;;5015220;28;20546;-67
2023/07/30 05:37:33;;;;;;;7.77;7.00;;;20.30;99.90;;;;;;5010348;28;20487;-67
2023/07/30 05:40:00;;;;;;;8.07;7.37;;;20.40;99.90;;;;;;5010099;28;20895;-67
2023/07/30 05:42:27;;;;;;;7.00;6.10;;;20.40;99.90;;;;;;5012417;28;20474;-68
2023/07/30 05:44:54;;;;;;;10.77;9.60;;;20.40;99.90;;;;;;4989943;28;20838;-68
2023/07/30 05:47:21;;;;;;;8.53;7.83;;;20.30;99.90;;;;;;5004238;28;21049;-68
2023/07/30 05:49:48;;;;;;;9.50;8.60;;;20.20;99.90;;;;;;5009472;28;21274;-67
2023/07/30 05:52:15;;;;;;;7.57;6.87;;;20.20;99.90;;;;;;5005380;28;20486;-65
2023/07/30 05:54:43;;;;;;;7.63;6.70;;;20.20;99.90;;;;;;4996730;28;20495;-67
2023/07/30 05:57:10;;;;;;;8.17;7.27;;;20.20;99.90;;;;;;5005598;28;20501;-67
2023/07/30 05:59:36;;;;;;;7.70;7.00;;;20.10;99.90;;;;;;5015379;28;20479;-65
2023/07/30 06:02:04;;;;;;;9.43;7.63;;;20.20;99.90;;;;;;5019763;28;21390;-64
2023/07/30 06:04:31;;;;;;;8.60;7.77;;;20.20;99.90;;;;;;5004237;28;20480;-64
2023/07/30 06:07:00;;;;;;;10.97;9.87;;;20.10;99.90;;;;;;5008276;28;20647;-67
2023/07/30 06:09:27;;;;;;;7.20;6.00;;;20.10;99.90;;;;;;5006642;28;20539;-63
2023/07/30 06:11:57;;;;;;;7.63;6.83;;;20.20;99.90;;;;;;5016675;28;20938;-61
2023/07/30 06:14:24;;;;;;;9.63;6.53;;;20.10;99.90;;;;;;5018275;28;20497;-63
2023/07/30 06:16:50;;;;;;;8.07;7.10;;;20.00;99.90;;;;;;5006468;28;20495;-66
2023/07/30 06:19:17;;;;;;;4.17;3.87;;;19.90;99.90;;;;;;5021345;28;21009;-66
2023/07/30 06:21:44;;;;;;;7.77;7.00;;;19.90;99.90;;;;;;5015096;28;20484;-68
2023/07/30 06:24:11;;;;;;;6.80;5.37;;;19.90;99.90;;;;;;5017225;28;20484;-64
2023/07/30 06:26:38;;;;;;;11.27;5.63;;;20.00;99.90;;;;;;4991661;28;20928;-65
2023/07/30 06:29:06;;;;;;;6.00;5.40;;;20.00;99.90;;;;;;5018480;28;20511;-66
2023/07/30 06:31:33;;;;;;;7.53;4.73;;;20.10;99.90;;;;;;5019860;28;20530;-67
2023/07/30 06:34:00;;;;;;;5.90;5.33;;;20.00;99.90;;;;;;5014640;28;20691;-64
2023/07/30 06:36:27;;;;;;;5.43;4.93;;;20.00;99.90;;;;;;5010480;28;20598;-69
2023/07/30 06:38:54;;;;;;;8.43;6.43;;;20.10;99.90;;;;;;4987703;28;20871;-67
2023/07/30 06:41:21;;;;;;;6.13;4.60;;;20.10;99.90;;;;;;5009326;28;20978;-65
2023/07/30 06:43:47;;;;;;;6.80;6.17;;;20.10;99.90;;;;;;4996179;28;20482;-68
2023/07/30 06:46:16;;;;;;;21.03;6.27;;;20.10;99.90;;;;;;5020486;28;21110;-65
2023/07/30 06:48:43;;;;;;;6.33;5.70;;;20.20;99.90;;;;;;5015891;28;20591;-68
2023/07/30 06:51:12;;;;;;;5.27;4.30;;;20.40;99.90;;;;;;5005028;28;20471;-67
2023/07/30 06:53:39;;;;;;;6.60;5.50;;;20.60;99.90;;;;;;5019406;28;20503;-66
2023/07/30 06:56:06;;;;;;;7.23;4.97;;;20.60;99.90;;;;;;4987383;28;20464;-69
2023/07/30 06:58:33;;;;;;;5.20;4.70;;;20.70;99.90;;;;;;4997245;28;20467;-67
2023/07/30 07:01:00;;;;;;;5.73;5.23;;;20.80;99.90;;;;;;5009401;28;20488;-66
2023/07/30 07:03:28;;;;;;;5.70;5.20;;;20.90;99.90;;;;;;5006554;28;20619;-64
2023/07/30 07:05:55;;;;;;;8.73;7.80;;;20.90;99.90;;;;;;5019293;28;20555;-66
2023/07/30 07:08:22;;;;;;;5.07;4.47;;;20.70;99.90;;;;;;5020852;28;20488;-66
2023/07/30 07:10:49;;;;;;;9.20;6.83;;;20.80;99.90;;;;;;5017144;28;21176;-65
2023/07/30 07:13:17;;;;;;;5.80;4.47;;;20.70;99.90;;;;;;5009126;28;20845;-67
2023/07/30 07:15:44;;;;;;;7.00;6.40;;;20.80;99.90;;;;;;5007125;28;20575;-67
2023/07/30 07:18:11;;;;;;;5.73;4.80;;;20.60;99.90;;;;;;5003300;28;20545;-63
2023/07/30 07:20:40;;;;;;;5.23;4.73;;;20.50;99.90;;;;;;5004672;28;20486;-66
2023/07/30 07:23:07;;;;;;;6.03;5.00;;;20.60;99.90;;;;;;5003550;28;20483;-63
2023/07/30 07:25:34;;;;;;;5.07;4.67;;;20.60;99.90;;;;;;4988731;28;20903;-66
2023/07/30 07:28:00;;;;;;;7.43;5.53;;;20.60;99.90;;;;;;4976070;28;21022;-66
2023/07/30 07:30:27;;;;;;;7.77;4.27;;;20.70;99.90;;;;;;5015670;28;20489;-65
2023/07/30 07:32:55;;;;;;;7.40;6.27;;;21.10;99.90;;;;;;5012240;28;21008;-66
2023/07/30 07:35:22;;;;;;;5.13;4.60;;;21.00;99.90;;;;;;5013936;28;20573;-63
2023/07/30 07:37:50;;;;;;;10.70;7.53;;;21.00;99.90;;;;;;5010196;28;20541;-67
2023/07/30 07:40:17;;;;;;;6.20;5.20;;;21.00;99.90;;;;;;5012696;28;20460;-64
2023/07/30 07:42:44;;;;;;;8.13;7.43;;;21.30;99.90;;;;;;5009201;28;20491;-66
2023/07/30 07:45:11;;;;;;;6.07;5.47;;;21.30;99.90;;;;;;5017492;28;20479;-65
2023/07/30 07:47:38;;;;;;;6.07;5.47;;;21.20;99.90;;;;;;4999693;28;20459;-67
2023/07/30 07:50:05;;;;;;;6.67;6.07;;;21.30;99.90;;;;;;5018313;28;20482;-65
2023/07/30 07:52:32;;;;;;;5.20;4.53;;;21.30;99.90;;;;;;5017348;28;20485;-64
2023/07/30 07:55:01;;;;;;;4.80;4.40;;;21.40;99.90;;;;;;5007681;28;20636;-67
2023/07/30 07:57:29;;;;;;;5.10;4.70;;;21.50;99.90;;;;;;4984989;28;20579;-67
2023/07/30 07:59:57;;;;;;;6.13;5.40;;;21.40;99.90;;;;;;5014586;28;20549;-66
2023/07/30 08:02:24;;;;;;;5.27;4.10;;;21.40;99.90;;;;;;5017417;28;21021;-67
2023/07/30 08:04:51;;;;;;;7.67;5.03;;;21.30;99.90;;;;;;5014280;28;20486;-65
2023/07/30 08:07:18;;;;;;;9.80;4.63;;;21.20;99.90;;;;;;5021294;28;20468;-64
2023/07/30 08:09:44;;;;;;;5.13;4.20;;;21.10;99.90;;;;;;5010616;28;20475;-67
2023/07/30 08:12:14;;;;;;;6.60;5.00;;;21.20;99.90;;;;;;4985352;28;20451;-66
2023/07/30 08:14:40;;;;;;;6.10;3.97;;;21.40;99.90;;;;;;5002541;28;20632;-66
2023/07/30 08:17:07;;;;;;;5.70;5.20;;;21.40;99.90;;;;;;5010360;28;20456;-67
2023/07/30 08:19:34;;;;;;;6.20;4.50;;;21.40;99.90;;;;;;5003140;28;20458;-65
2023/07/30 08:22:01;;;;;;;4.90;4.40;;;21.40;99.90;;;;;;5013115;28;20493;-66
2023/07/30 08:24:28;;;;;;;5.00;4.60;;;21.40;99.90;;;;;;5007113;28;20487;-65
2023/07/30 08:26:55;;;;;;;6.27;5.77;;;21.50;99.90;;;;;;4995815;28;20479;-66
2023/07/30 08:29:23;;;;;;;4.20;3.30;;;21.70;99.90;;;;;;5016459;28;20824;-65
2023/07/30 08:31:50;;;;;;;7.13;6.63;;;21.70;99.90;;;;;;5000297;28;20474;-67
2023/07/30 08:34:17;;;;;;;3.53;3.20;;;21.50;99.90;;;;;;4996349;28;20742;-67
2023/07/30 08:36:44;;;;;;;5.33;4.83;;;21.40;99.90;;;;;;5001215;28;20739;-64
2023/07/30 08:39:10;;;;;;;4.27;3.87;;;21.40;99.90;;;;;;5005154;28;20874;-65
2023/07/30 08:41:37;;;;;;;5.33;4.07;;;21.30;99.90;;;;;;5016015;28;20458;-67
2023/07/30 08:44:05;;;;;;;4.33;3.93;;;21.20;99.90;;;;;;5020903;28;20536;-67
2023/07/30 08:46:34;;;;;;;3.83;3.53;;;21.10;99.90;;;;;;5023511;28;20484;-66
2023/07/30 08:49:01;;;;;;;4.27;3.90;;;21.10;99.90;;;;;;5008077;28;20487;-66
2023/07/30 08:51:28;;;;;;;5.57;3.50;;;21.10;99.90;;;;;;5016931;28;20497;-66
2023/07/30 08:53:57;;;;;;;8.43;5.60;;;21.00;99.90;;;;;;5017913;28;20805;-66
2023/07/30 08:56:24;;;;;;;4.00;3.70;;;21.00;99.90;;;;;;5020687;28;20480;-66
2023/07/30 08:58:53;;;;;;;8.87;5.70;;;21.10;99.90;;;;;;5017860;28;21389;-64
2023/07/30 09:01:21;;;;;;;3.20;2.73;;;21.10;99.90;;;;;;5010849;28;20474;-66
2023/07/30 09:03:51;;;;;;;5.37;4.80;;;21.10;99.90;;;;;;5017339;28;20454;-65
2023/07/30 09:06:18;;;;;;;4.63;3.37;;;21.20;99.90;;;;;;5020098;28;20467;-65
2023/07/30 09:08:45;;;;;;;10.17;3.80;;;21.40;99.90;;;;;;4998471;28;21100;-63
2023/07/30 09:11:12;;;;;;;3.43;3.13;;;21.10;99.90;;;;;;5019578;28;20456;-65
2023/07/30 09:13:39;;;;;;;6.87;3.70;;;21.20;99.90;;;;;;5012467;28;20975;-65
2023/07/30 09:16:11;;;;;;;7.67;3.17;;;21.20;99.90;;;;;;5012440;28;20465;-66
2023/07/30 09:18:41;;;;;;;6.20;3.57;;;21.30;99.90;;;;;;5014174;28;20496;-63
2023/07/30 09:21:11;;;;;;;4.77;3.43;;;21.40;99.90;;;;;;5022348;28;20975;-67
2023/07/30 09:23:42;;;;;;;5.77;3.37;;;21.80;99.90;;;;;;5003412;28;21284;-66
2023/07/30 09:26:09;;;;;;;4.63;2.87;;;22.20;99.50;;;;;;5025403;28;20487;-66
2023/07/30 09:28:36;;;;;;;4.83;3.00;;;22.20;99.60;;;;;;5018711;28;20469;-65
2023/07/30 09:31:04;;;;;;;4.00;3.27;;;22.50;99.90;;;;;;5004132;28;20742;-67
2023/07/30 09:33:32;;;;;;;12.30;3.50;;;22.50;99.60;;;;;;5002002;28;21046;-66
2023/07/30 09:35:59;;;;;;;6.63;3.30;;;22.50;99.20;;;;;;4980276;28;20500;-66
2023/07/30 09:38:30;;;;;;;5.13;3.13;;;22.40;97.90;;;;;;5022616;28;20449;-65
2023/07/30 09:41:01;;;;;;;4.37;3.97;;;22.40;97.90;;;;;;5007671;28;20677;-65
2023/07/30 09:43:31;;;;;;;8.23;3.10;;;22.10;97.60;;;;;;5002679;28;20547;-65
2023/07/30 09:46:03;;;;;;;7.67;4.27;;;22.10;97.70;;;;;;5016850;28;21010;-61
2023/07/30 09:48:31;;;;;;;3.20;2.90;;;22.10;98.40;;;;;;5011327;28;20464;-65
2023/07/30 09:51:00;;;;;;;5.00;3.50;;;22.10;98.40;;;;;;4978704;28;20480;-64
2023/07/30 09:53:34;;;;;;;5.00;3.60;;;22.20;97.40;;;;;;5020941;28;20495;-65
2023/07/30 09:56:01;;;;;;;4.20;3.00;;;22.20;96.90;;;;;;5023026;28;20459;-64
2023/07/30 09:58:28;;;;;;;4.33;3.60;;;22.30;97.60;;;;;;4995760;28;20887;-63
2023/07/30 10:00:56;;;;;;;6.00;5.43;;;22.20;97.20;;;;;;5022812;28;21160;-64
2023/07/30 10:03:24;;;;;;;8.27;3.67;;;22.30;97.10;;;;;;5019628;28;20465;-63
2023/07/30 10:05:54;;;;;;;4.93;4.40;;;22.20;97.40;;;;;;4997270;28;20566;-62
2023/07/30 10:08:25;;;;;;;4.63;3.50;;;22.10;97.30;;;;;;5012765;28;20479;-64
2023/07/30 10:10:55;;;;;;;5.50;5.10;;;21.90;96.60;;;;;;5001431;28;21036;-65
2023/07/30 10:13:24;;;;;;;5.60;4.47;;;21.80;96.30;;;;;;5017145;28;21008;-64
2023/07/30 10:15:52;;;;;;;7.60;4.70;;;21.80;96.90;;;;;;5009939;28;20489;-63
2023/07/30 10:18:19;;;;;;;7.23;2.67;;;21.70;96.70;;;;;;5022591;28;20480;-65
2023/07/30 10:20:54;;;;;;;3.87;3.17;;;21.60;96.70;;;;;;5016156;28;20520;-63
2023/07/30 10:23:21;;;;;;;9.87;6.17;;;21.60;96.70;;;;;;5012529;28;20458;-63
2023/07/30 10:25:49;;;;;;;12.23;6.80;;;21.70;96.50;;;;;;5008323;28;20483;-63
2023/07/30 10:28:33;;;;;;;7.20;4.23;;;21.50;96.60;;;;;;5013608;28;20487;-63
2023/07/30 10:31:01;;;;;;;12.80;4.23;;;21.50;95.90;;;;;;5006306;28;20495;-63
2023/07/30 10:33:47;;;;;;;6.43;3.80;;;21.50;96.30;;;;;;5015949;28;20601;-64
2023/07/30 10:36:14;;;;;;;6.40;4.53;;;21.40;95.70;;;;;;5011150;28;21899;-64
2023/07/30 10:38:42;;;;;;;6.27;3.60;;;21.40;95.50;;;;;;5000426;28;21218;-65
2023/07/30 10:41:11;;;;;;;4.53;4.13;;;21.40;95.70;;;;;;4996637;28;20491;-64
2023/07/30 10:43:41;;;;;;;12.13;4.83;;;21.20;95.40;;;;;;5007117;28;20587;-64
2023/07/30 10:46:10;;;;;;;5.43;3.67;;;21.30;95.20;;;;;;5018657;28;20483;-63
2023/07/30 10:48:38;;;;;;;5.70;4.03;;;21.10;95.00;;;;;;5016824;28;20986;-63
2023/07/30 10:51:08;;;;;;;4.53;4.07;;;21.20;95.60;;;;;;5016739;28;20848;-64
2023/07/30 10:53:36;;;;;;;12.87;5.17;;;21.30;96.40;;;;;;4997966;28;20547;-65
2023/07/30 10:56:04;;;;;;;11.63;3.67;;;21.50;96.50;;;;;;5022013;28;20836;-65
2023/07/30 10:58:32;;;;;;;7.67;3.73;;;21.50;96.50;;;;;;5008305;28;20460;-63
2023/07/30 11:01:02;;;;;;;8.17;5.03;;;21.60;95.60;;;;;;5008110;28;20631;-62
2023/07/30 11:03:31;;;;;;;5.80;4.37;;;;;;;;;;4999040;28;20972;-65
2023/07/30 11:05:58;;;;;;;9.40;4.90;;;22.20;96.30;;;;;;5003062;28;20481;-66
2023/07/30 11:08:34;;;;;;;5.80;4.87;;;22.20;96.30;;;;;;5019400;28;20539;-64
2023/07/30 11:11:01;;;;;;;5.13;3.97;;;22.30;96.30;;;;;;5011944;28;20479;-65
2023/07/30 11:13:27;;;;;;;7.87;4.27;;;22.50;96.80;;;;;;5019200;28;20695;-62
2023/07/30 11:15:55;;;;;;;7.20;4.80;;;22.40;95.80;;;;;;5018621;28;20453;-64
2023/07/30 11:18:23;;;;;;;3.90;3.40;;;22.50;96.20;;;;;;5020191;28;20463;-64
2023/07/30 11:20:51;;;;;;;11.60;5.23;;;22.10;96.40;;;;;;4997568;28;20484;-65
2023/07/30 11:23:19;;;;;;;6.20;4.70;;;22.20;96.10;;;;;;5003634;28;20822;-65
2023/07/30 11:25:50;;;;;;;5.87;5.30;;;22.10;95.60;;;;;;5011756;28;20481;-65
2023/07/30 11:28:29;;;;;;;4.47;3.90;;;22.20;95.60;;;;;;5003061;28;20800;-64
2023/07/30 11:30:58;;;;;;;8.80;5.10;;;21.90;95.00;;;;;;5020560;28;20467;-65
2023/07/30 11:33:27;;;;;;;7.03;4.20;;;21.90;95.60;;;;;;5006019;28;20795;-64
2023/07/30 11:35:56;;;;;;;5.53;5.00;;;21.80;96.40;;;;;;5008686;28;20456;-63
2023/07/30 11:38:24;;;;;;;5.83;3.20;;;20.60;96.00;;;;;;5010854;28;20568;-64
2023/07/30 11:40:52;;;;;;;7.30;5.13;;;21.60;95.40;;;;;;5012749;28;20489;-66
2023/07/30 11:43:19;;;;;;;13.57;4.07;;;21.80;96.60;;;;;;5027011;28;20461;-63
2023/07/30 11:45:46;;;;;;;8.17;4.90;;;22.00;96.60;;;;;;5025184;28;20831;-61
2023/07/30 11:48:14;;;;;;;5.00;3.90;;;22.20;96.30;;;;;;5013881;28;20488;-63
2023/07/30 11:50:51;;;;;;;6.87;4.80;;;22.80;95.10;;;;;;5008015;28;20519;-62
2023/07/30 11:53:19;;;;;;;10.60;4.00;;;22.80;94.80;;;;;;5016276;28;20481;-64
2023/07/30 11:55:47;;;;;;;6.53;4.50;;;22.90;93.50;;;;;;5009149;28;20829;-63
2023/07/30 11:58:14;;;;;;;5.13;3.13;;;22.80;92.30;;;;;;5015454;28;20551;-64
2023/07/30 12:00:44;;;;;;;5.20;4.00;;;22.70;92.70;;;;;;4997567;28;20717;-65
2023/07/30 12:03:12;;;;;;;3.60;3.30;;;22.70;94.10;;;;;;5013344;28;20574;-64
2023/07/30 12:05:40;;;;;;;6.23;2.93;;;22.50;93.20;;;;;;5015084;28;20495;-65
2023/07/30 12:08:19;;;;;;;5.33;3.77;;;22.40;93.50;;;;;;5017116;28;20457;-64
2023/07/30 12:10:47;;;;;;;6.63;4.90;;;22.20;92.30;;;;;;4992440;28;20548;-64
2023/07/30 12:13:16;;;;;;;8.77;4.00;;;22.10;91.70;;;;;;5010821;28;20704;-64
2023/07/30 12:15:52;;;;;;;4.33;3.93;;;22.10;92.30;;;;;;5006239;28;20457;-65
2023/07/30 12:18:19;;;;;;;7.30;3.57;;;22.10;92.50;;;;;;5007730;28;20820;-62
2023/07/30 12:20:46;;;;;;;8.03;4.40;;;22.10;92.70;;;;;;5019793;28;20454;-63
2023/07/30 12:23:15;;;;;;;5.33;3.77;;;22.10;92.60;;;;;;4999868;28;20476;-64
2023/07/30 12:25:41;;;;;;;5.87;4.90;;;22.30;93.80;;;;;;5005894;28;20484;-63
2023/07/30 12:28:10;;;;;;;4.10;3.40;;;22.50;92.90;;;;;;5003360;28;20451;-63
2023/07/30 12:30:37;;;;;;;4.37;3.00;;;22.50;92.80;;;;;;5017756;28;20580;-63
2023/07/30 12:33:04;;;;;;;8.30;4.67;;;22.70;92.70;;;;;;5015996;28;20919;-66
2023/07/30 12:35:31;;;;;;;3.80;3.47;;;22.60;91.80;;;;;;5008984;28;20459;-64
2023/07/30 12:37:59;;;;;;;9.40;4.23;;;22.60;91.50;;;;;;5004211;28;20446;-64
2023/07/30 12:40:29;;;;;;;6.47;3.50;;;22.50;92.40;;;;;;5000368;28;20550;-64
2023/07/30 12:42:57;;;;;;;5.03;3.93;;;22.40;90.40;;;;;;5009252;28;21040;-63
2023/07/30 12:45:24;;;;;;;7.07;3.67;;;22.40;90.70;;;;;;4995739;28;20446;-65
2023/07/30 12:47:51;;;;;;;5.50;4.63;;;22.20;90.40;;;;;;5012326;28;20927;-63